sensor_id;sensor_type;location;lat;lon;timestamp;pressure;altitude;pressure_sealevel;temperature;humidity
55687;BME280;41911;52.362;4.978;2023-04-06T00:00:21;101841.47;;;6.49;35.47
55687;BME280;41911;52.362;4.978;2023-04-06T00:00:52;101841.08;;;6.60;35.23
55687;BME280;41911;52.362;4.978;2023-04-06T00:01:23;101837.02;;;6.66;35.50
55687;BME280;41911;52.362;4.978;2023-04-06T00:01:54;101839.79;;;6.58;35.40
55687;BME280;41911;52.362;4.978;2023-04-06T00:02:25;101839.60;;;6.65;35.57
55687;BME280;41911;52.362;4.978;2023-04-06T00:02:56;101839.95;;;6.62;34.62
55687;BME280;41911;52.362;4.978;2023-04-06T00:03:27;101840.25;;;6.59;35.30
55687;BME280;41911;52.362;4.978;2023-04-06T00:03:58;101837.32;;;6.61;34.77
55687;BME280;41911;52.362;4.978;2023-04-06T00:04:29;101839.63;;;6.28;35.03
55687;BME280;41911;52.362;4.978;2023-04-06T00:05:00;101837.67;;;6.59;35.30
55687;BME280;41911;52.362;4.978;2023-04-06T00:05:31;101839.46;;;6.50;35.04
55687;BME280;41911;52.362;4.978;2023-04-06T00:06:03;101835.85;;;6.35;34.95
55687;BME280;41911;52.362;4.978;2023-04-06T00:06:34;101834.98;;;6.32;34.79
55687;BME280;41911;52.362;4.978;2023-04-06T00:07:05;101837.71;;;6.23;34.98
55687;BME280;41911;52.362;4.978;2023-04-06T00:07:36;101836.79;;;6.53;34.46
55687;BME280;41911;52.362;4.978;2023-04-06T00:08:07;101835.24;;;6.47;34.66
55687;BME280;41911;52.362;4.978;2023-04-06T00:08:38;101833.77;;;6.51;35.04
55687;BME280;41911;52.362;4.978;2023-04-06T00:09:08;101834.34;;;6.26;34.97
55687;BME280;41911;52.362;4.978;2023-04-06T00:09:39;101831.44;;;6.49;35.33
55687;BME280;41911;52.362;4.978;2023-04-06T00:10:11;101834.02;;;6.50;35.34
55687;BME280;41911;52.362;4.978;2023-04-06T00:10:42;101832.62;;;6.25;34.68
55687;BME280;41911;52.362;4.978;2023-04-06T00:11:13;101831.23;;;6.49;34.71
55687;BME280;41911;52.362;4.978;2023-04-06T00:11:44;101832.19;;;6.58;34.28
55687;BME280;41911;52.362;4.978;2023-04-06T00:12:15;101831.77;;;6.61;34.93
55687;BME280;41911;52.362;4.978;2023-04-06T00:12:46;101830.88;;;6.63;34.87
55687;BME280;41911;52.362;4.978;2023-04-06T00:13:17;101829.86;;;6.32;35.63
55687;BME280;41911;52.362;4.978;2023-04-06T00:13:48;101829.81;;;6.63;34.91
55687;BME280;41911;52.362;4.978;2023-04-06T00:14:19;101829.40;;;6.57;34.94
55687;BME280;41911;52.362;4.978;2023-04-06T00:14:50;101830.39;;;6.70;34.77
55687;BME280;41911;52.362;4.978;2023-04-06T00:15:21;101827.89;;;6.63;35.04
55687;BME280;41911;52.362;4.978;2023-04-06T00:15:52;101829.26;;;6.65;34.94
55687;BME280;41911;52.362;4.978;2023-04-06T00:16:23;101827.19;;;6.76;34.52
55687;BME280;41911;52.362;4.978;2023-04-06T00:16:56;101827.98;;;6.73;34.49
55687;BME280;41911;52.362;4.978;2023-04-06T00:17:27;101826.45;;;6.71;34.00
55687;BME280;41911;52.362;4.978;2023-04-06T00:17:58;101826.37;;;6.65;34.75
55687;BME280;41911;52.362;4.978;2023-04-06T00:18:29;101824.69;;;6.33;34.74
55687;BME280;41911;52.362;4.978;2023-04-06T00:19:00;101823.05;;;6.32;34.74
55687;BME280;41911;52.362;4.978;2023-04-06T00:19:31;101823.16;;;6.36;34.71
55687;BME280;41911;52.362;4.978;2023-04-06T00:20:02;101821.47;;;6.31;34.63
55687;BME280;41911;52.362;4.978;2023-04-06T00:20:33;101823.17;;;6.68;34.79
55687;BME280;41911;52.362;4.978;2023-04-06T00:21:04;101823.25;;;6.42;34.84
55687;BME280;41911;52.362;4.978;2023-04-06T00:21:35;101823.26;;;6.44;34.92
55687;BME280;41911;52.362;4.978;2023-04-06T00:22:06;101820.68;;;6.71;35.11
55687;BME280;41911;52.362;4.978;2023-04-06T00:22:37;101822.04;;;6.55;34.91
55687;BME280;41911;52.362;4.978;2023-04-06T00:23:08;101819.63;;;6.81;34.75
55687;BME280;41911;52.362;4.978;2023-04-06T00:23:39;101817.79;;;6.67;35.10
55687;BME280;41911;52.362;4.978;2023-04-06T00:24:10;101818.43;;;6.76;34.80
55687;BME280;41911;52.362;4.978;2023-04-06T00:24:41;101821.08;;;6.45;35.11
55687;BME280;41911;52.362;4.978;2023-04-06T00:25:14;101818.35;;;6.82;35.09
55687;BME280;41911;52.362;4.978;2023-04-06T00:25:45;101818.33;;;6.68;34.08
55687;BME280;41911;52.362;4.978;2023-04-06T00:26:16;101817.15;;;6.38;34.39
55687;BME280;41911;52.362;4.978;2023-04-06T00:26:46;101815.73;;;6.48;33.72
55687;BME280;41911;52.362;4.978;2023-04-06T00:27:17;101815.83;;;6.73;34.04
55687;BME280;41911;52.362;4.978;2023-04-06T00:27:48;101814.91;;;6.47;33.49
55687;BME280;41911;52.362;4.978;2023-04-06T00:28:19;101812.28;;;6.46;33.99
55687;BME280;41911;52.362;4.978;2023-04-06T00:28:50;101811.69;;;6.58;33.97
55687;BME280;41911;52.362;4.978;2023-04-06T00:29:21;101810.10;;;6.66;34.19
55687;BME280;41911;52.362;4.978;2023-04-06T00:29:52;101809.64;;;6.68;34.23
55687;BME280;41911;52.362;4.978;2023-04-06T00:30:23;101810.58;;;6.37;33.63
55687;BME280;41911;52.362;4.978;2023-04-06T00:30:54;101808.63;;;6.64;33.70
55687;BME280;41911;52.362;4.978;2023-04-06T00:31:25;101810.37;;;6.37;34.04
55687;BME280;41911;52.362;4.978;2023-04-06T00:31:56;101811.11;;;6.65;34.21
55687;BME280;41911;52.362;4.978;2023-04-06T00:32:27;101809.63;;;6.23;34.03
55687;BME280;41911;52.362;4.978;2023-04-06T00:32:59;101808.45;;;6.60;34.04
55687;BME280;41911;52.362;4.978;2023-04-06T00:33:30;101808.82;;;6.65;34.28
55687;BME280;41911;52.362;4.978;2023-04-06T00:34:01;101808.57;;;6.33;34.52
55687;BME280;41911;52.362;4.978;2023-04-06T00:34:32;101807.95;;;6.61;33.69
55687;BME280;41911;52.362;4.978;2023-04-06T00:35:03;101807.46;;;6.58;34.16
55687;BME280;41911;52.362;4.978;2023-04-06T00:35:34;101806.15;;;6.60;34.23
55687;BME280;41911;52.362;4.978;2023-04-06T00:36:06;101805.74;;;6.51;34.44
55687;BME280;41911;52.362;4.978;2023-04-06T00:36:37;101807.30;;;6.60;34.26
55687;BME280;41911;52.362;4.978;2023-04-06T00:37:08;101806.36;;;6.64;34.27
55687;BME280;41911;52.362;4.978;2023-04-06T00:37:39;101804.75;;;6.58;33.82
55687;BME280;41911;52.362;4.978;2023-04-06T00:38:11;101805.79;;;6.60;34.41
55687;BME280;41911;52.362;4.978;2023-04-06T00:38:42;101807.28;;;6.59;33.98
55687;BME280;41911;52.362;4.978;2023-04-06T00:39:13;101803.59;;;6.44;34.20
55687;BME280;41911;52.362;4.978;2023-04-06T00:39:44;101803.95;;;6.52;34.10
55687;BME280;41911;52.362;4.978;2023-04-06T00:40:15;101803.33;;;6.50;33.96
55687;BME280;41911;52.362;4.978;2023-04-06T00:40:47;101802.22;;;6.60;34.76
55687;BME280;41911;52.362;4.978;2023-04-06T00:41:18;101803.23;;;6.57;34.35
55687;BME280;41911;52.362;4.978;2023-04-06T00:41:50;101802.53;;;6.27;33.95
55687;BME280;41911;52.362;4.978;2023-04-06T00:42:22;101801.11;;;6.60;34.21
55687;BME280;41911;52.362;4.978;2023-04-06T00:42:53;101800.52;;;6.54;33.83
55687;BME280;41911;52.362;4.978;2023-04-06T00:43:24;101801.84;;;6.61;33.96
55687;BME280;41911;52.362;4.978;2023-04-06T00:43:56;101800.03;;;6.35;33.33
55687;BME280;41911;52.362;4.978;2023-04-06T00:44:27;101797.90;;;6.32;33.24
55687;BME280;41911;52.362;4.978;2023-04-06T00:44:59;101796.44;;;6.52;33.87
55687;BME280;41911;52.362;4.978;2023-04-06T00:45:30;101797.38;;;6.32;33.36
55687;BME280;41911;52.362;4.978;2023-04-06T00:46:01;101795.93;;;6.57;33.85
55687;BME280;41911;52.362;4.978;2023-04-06T00:46:32;101797.16;;;6.59;33.32
55687;BME280;41911;52.362;4.978;2023-04-06T00:47:03;101798.91;;;6.51;33.76
55687;BME280;41911;52.362;4.978;2023-04-06T00:47:34;101795.16;;;6.55;34.18
55687;BME280;41911;52.362;4.978;2023-04-06T00:48:05;101795.25;;;6.61;33.68
55687;BME280;41911;52.362;4.978;2023-04-06T00:48:36;101796.59;;;6.60;33.89
55687;BME280;41911;52.362;4.978;2023-04-06T00:49:07;101794.51;;;6.31;33.77
55687;BME280;41911;52.362;4.978;2023-04-06T00:49:38;101792.29;;;6.65;33.53
55687;BME280;41911;52.362;4.978;2023-04-06T00:50:10;101793.19;;;6.64;32.90
55687;BME280;41911;52.362;4.978;2023-04-06T00:50:40;101791.75;;;6.65;33.28
55687;BME280;41911;52.362;4.978;2023-04-06T00:51:11;101791.60;;;6.71;32.71
55687;BME280;41911;52.362;4.978;2023-04-06T00:51:42;101791.18;;;6.66;33.90
55687;BME280;41911;52.362;4.978;2023-04-06T00:52:14;101790.36;;;6.67;33.42
55687;BME280;41911;52.362;4.978;2023-04-06T00:52:45;101790.05;;;6.37;34.19
55687;BME280;41911;52.362;4.978;2023-04-06T00:53:16;101788.57;;;6.71;34.01
55687;BME280;41911;52.362;4.978;2023-04-06T00:53:47;101789.74;;;6.42;33.60
55687;BME280;41911;52.362;4.978;2023-04-06T00:54:19;101786.91;;;6.70;33.62
55687;BME280;41911;52.362;4.978;2023-04-06T00:54:50;101788.18;;;6.63;33.92
55687;BME280;41911;52.362;4.978;2023-04-06T00:55:23;101788.70;;;6.69;34.11
55687;BME280;41911;52.362;4.978;2023-04-06T00:55:53;101788.41;;;6.72;33.26
55687;BME280;41911;52.362;4.978;2023-04-06T00:56:24;101788.24;;;6.71;33.73
55687;BME280;41911;52.362;4.978;2023-04-06T00:56:56;101786.08;;;6.70;33.75
55687;BME280;41911;52.362;4.978;2023-04-06T00:57:27;101786.54;;;6.69;33.27
55687;BME280;41911;52.362;4.978;2023-04-06T00:57:59;101785.30;;;6.78;33.11
55687;BME280;41911;52.362;4.978;2023-04-06T00:58:30;101783.58;;;6.72;33.36
55687;BME280;41911;52.362;4.978;2023-04-06T00:59:01;101785.21;;;6.80;32.65
55687;BME280;41911;52.362;4.978;2023-04-06T00:59:32;101782.04;;;6.43;33.12
55687;BME280;41911;52.362;4.978;2023-04-06T01:00:04;101780.54;;;6.48;32.98
55687;BME280;41911;52.362;4.978;2023-04-06T01:00:35;101781.18;;;6.75;33.11
55687;BME280;41911;52.362;4.978;2023-04-06T01:01:06;101780.75;;;6.50;32.83
55687;BME280;41911;52.362;4.978;2023-04-06T01:01:37;101779.81;;;6.89;33.34
55687;BME280;41911;52.362;4.978;2023-04-06T01:02:08;101775.41;;;6.57;33.48
55687;BME280;41911;52.362;4.978;2023-04-06T01:02:39;101777.27;;;6.54;33.14
55687;BME280;41911;52.362;4.978;2023-04-06T01:03:10;101774.03;;;6.51;33.03
55687;BME280;41911;52.362;4.978;2023-04-06T01:03:41;101773.68;;;6.57;33.11
55687;BME280;41911;52.362;4.978;2023-04-06T01:04:12;101772.74;;;6.60;32.96
55687;BME280;41911;52.362;4.978;2023-04-06T01:04:43;101772.39;;;6.81;33.06
55687;BME280;41911;52.362;4.978;2023-04-06T01:05:15;101769.64;;;6.89;33.10
55687;BME280;41911;52.362;4.978;2023-04-06T01:05:46;101769.59;;;6.91;33.41
55687;BME280;41911;52.362;4.978;2023-04-06T01:06:17;101767.93;;;6.95;33.27
55687;BME280;41911;52.362;4.978;2023-04-06T01:06:48;101769.25;;;6.72;33.54
55687;BME280;41911;52.362;4.978;2023-04-06T01:07:19;101767.57;;;6.69;33.06
55687;BME280;41911;52.362;4.978;2023-04-06T01:07:50;101766.69;;;6.99;33.23
55687;BME280;41911;52.362;4.978;2023-04-06T01:08:21;101767.82;;;6.96;32.79
55687;BME280;41911;52.362;4.978;2023-04-06T01:08:52;101766.90;;;6.97;32.69
55687;BME280;41911;52.362;4.978;2023-04-06T01:09:23;101766.06;;;7.07;32.70
55687;BME280;41911;52.362;4.978;2023-04-06T01:09:54;101765.03;;;7.12;32.72
55687;BME280;41911;52.362;4.978;2023-04-06T01:10:26;101765.06;;;7.10;32.86
55687;BME280;41911;52.362;4.978;2023-04-06T01:10:59;101763.28;;;7.11;32.72
55687;BME280;41911;52.362;4.978;2023-04-06T01:11:30;101763.57;;;7.03;32.74
55687;BME280;41911;52.362;4.978;2023-04-06T01:12:01;101761.51;;;6.79;32.90
55687;BME280;41911;52.362;4.978;2023-04-06T01:12:32;101761.04;;;6.81;32.57
55687;BME280;41911;52.362;4.978;2023-04-06T01:13:03;101760.89;;;6.86;33.01
55687;BME280;41911;52.362;4.978;2023-04-06T01:13:34;101758.63;;;6.77;32.47
55687;BME280;41911;52.362;4.978;2023-04-06T01:14:05;101758.17;;;6.87;32.61
55687;BME280;41911;52.362;4.978;2023-04-06T01:14:36;101755.09;;;7.20;32.30
55687;BME280;41911;52.362;4.978;2023-04-06T01:15:08;101756.95;;;6.88;33.34
55687;BME280;41911;52.362;4.978;2023-04-06T01:15:39;101754.28;;;7.17;32.92
55687;BME280;41911;52.362;4.978;2023-04-06T01:16:10;101755.40;;;6.79;32.41
55687;BME280;41911;52.362;4.978;2023-04-06T01:16:42;101755.53;;;6.83;32.69
55687;BME280;41911;52.362;4.978;2023-04-06T01:17:13;101756.03;;;6.90;32.80
55687;BME280;41911;52.362;4.978;2023-04-06T01:17:44;101756.36;;;6.96;32.00
55687;BME280;41911;52.362;4.978;2023-04-06T01:18:15;101755.94;;;7.22;32.16
55687;BME280;41911;52.362;4.978;2023-04-06T01:18:46;101754.76;;;7.18;31.98
55687;BME280;41911;52.362;4.978;2023-04-06T01:19:17;101752.97;;;7.09;32.51
55687;BME280;41911;52.362;4.978;2023-04-06T01:19:48;101753.10;;;7.14;32.21
55687;BME280;41911;52.362;4.978;2023-04-06T01:20:19;101753.49;;;7.22;32.49
55687;BME280;41911;52.362;4.978;2023-04-06T01:20:50;101754.39;;;7.18;31.98
55687;BME280;41911;52.362;4.978;2023-04-06T01:21:21;101752.20;;;7.14;31.53
55687;BME280;41911;52.362;4.978;2023-04-06T01:21:52;101753.95;;;7.14;31.85
55687;BME280;41911;52.362;4.978;2023-04-06T01:22:24;101751.78;;;6.88;32.08
55687;BME280;41911;52.362;4.978;2023-04-06T01:22:55;101750.70;;;6.77;32.63
55687;BME280;41911;52.362;4.978;2023-04-06T01:23:26;101749.90;;;7.07;32.52
55687;BME280;41911;52.362;4.978;2023-04-06T01:23:57;101750.48;;;6.82;32.45
55687;BME280;41911;52.362;4.978;2023-04-06T01:24:28;101750.46;;;6.60;31.69
55687;BME280;41911;52.362;4.978;2023-04-06T01:25:00;101750.53;;;6.83;32.30
55687;BME280;41911;52.362;4.978;2023-04-06T01:25:31;101752.63;;;6.61;32.35
55687;BME280;41911;52.362;4.978;2023-04-06T01:26:02;101751.44;;;6.65;32.73
55687;BME280;41911;52.362;4.978;2023-04-06T01:26:34;101750.09;;;6.85;32.27
55687;BME280;41911;52.362;4.978;2023-04-06T01:27:05;101752.83;;;7.01;32.04
55687;BME280;41911;52.362;4.978;2023-04-06T01:27:37;101749.51;;;7.01;32.82
55687;BME280;41911;52.362;4.978;2023-04-06T01:28:08;101750.92;;;6.99;32.28
55687;BME280;41911;52.362;4.978;2023-04-06T01:28:39;101750.68;;;6.40;32.82
55687;BME280;41911;52.362;4.978;2023-04-06T01:29:11;101748.18;;;6.83;32.13
55687;BME280;41911;52.362;4.978;2023-04-06T01:29:42;101749.25;;;6.50;32.08
55687;BME280;41911;52.362;4.978;2023-04-06T01:30:13;101749.03;;;6.82;33.04
55687;BME280;41911;52.362;4.978;2023-04-06T01:30:44;101747.77;;;6.91;32.59
55687;BME280;41911;52.362;4.978;2023-04-06T01:31:15;101745.41;;;6.76;31.96
55687;BME280;41911;52.362;4.978;2023-04-06T01:31:46;101746.93;;;6.83;32.79
55687;BME280;41911;52.362;4.978;2023-04-06T01:32:17;101745.33;;;7.02;32.18
55687;BME280;41911;52.362;4.978;2023-04-06T01:32:49;101744.29;;;6.92;32.28
55687;BME280;41911;52.362;4.978;2023-04-06T01:33:20;101744.81;;;6.93;32.14
55687;BME280;41911;52.362;4.978;2023-04-06T01:33:52;101741.28;;;6.83;32.10
55687;BME280;41911;52.362;4.978;2023-04-06T01:34:23;101743.15;;;6.86;32.45
55687;BME280;41911;52.362;4.978;2023-04-06T01:34:54;101741.50;;;6.84;32.42
55687;BME280;41911;52.362;4.978;2023-04-06T01:35:29;101741.66;;;6.85;32.20
55687;BME280;41911;52.362;4.978;2023-04-06T01:36:00;101741.10;;;6.57;32.41
55687;BME280;41911;52.362;4.978;2023-04-06T01:36:32;101737.28;;;6.83;32.05
55687;BME280;41911;52.362;4.978;2023-04-06T01:37:03;101736.02;;;6.50;31.86
55687;BME280;41911;52.362;4.978;2023-04-06T01:37:34;101733.85;;;6.58;32.24
55687;BME280;41911;52.362;4.978;2023-04-06T01:38:06;101732.76;;;6.68;32.39
55687;BME280;41911;52.362;4.978;2023-04-06T01:38:37;101732.28;;;6.77;32.32
55687;BME280;41911;52.362;4.978;2023-04-06T01:39:08;101732.64;;;6.75;32.00
55687;BME280;41911;52.362;4.978;2023-04-06T01:39:39;101732.40;;;6.81;32.61
55687;BME280;41911;52.362;4.978;2023-04-06T01:40:10;101731.36;;;6.53;32.51
55687;BME280;41911;52.362;4.978;2023-04-06T01:40:41;101731.78;;;6.64;32.54
55687;BME280;41911;52.362;4.978;2023-04-06T01:41:12;101733.46;;;6.58;32.44
55687;BME280;41911;52.362;4.978;2023-04-06T01:41:43;101730.21;;;6.91;32.32
55687;BME280;41911;52.362;4.978;2023-04-06T01:42:14;101729.17;;;6.42;32.81
55687;BME280;41911;52.362;4.978;2023-04-06T01:42:45;101728.15;;;6.65;32.09
55687;BME280;41911;52.362;4.978;2023-04-06T01:43:16;101726.53;;;6.72;32.34
55687;BME280;41911;52.362;4.978;2023-04-06T01:43:47;101725.86;;;6.49;32.57
55687;BME280;41911;52.362;4.978;2023-04-06T01:44:19;101727.59;;;6.83;32.51
55687;BME280;41911;52.362;4.978;2023-04-06T01:44:50;101724.00;;;6.48;32.08
55687;BME280;41911;52.362;4.978;2023-04-06T01:45:21;101721.69;;;6.41;32.22
55687;BME280;41911;52.362;4.978;2023-04-06T01:45:52;101721.63;;;6.70;31.99
55687;BME280;41911;52.362;4.978;2023-04-06T01:46:23;101719.71;;;6.70;32.79
55687;BME280;41911;52.362;4.978;2023-04-06T01:46:54;101720.53;;;6.68;32.18
55687;BME280;41911;52.362;4.978;2023-04-06T01:47:25;101721.44;;;6.80;32.67
55687;BME280;41911;52.362;4.978;2023-04-06T01:47:56;101717.87;;;6.66;32.51
55687;BME280;41911;52.362;4.978;2023-04-06T01:48:27;101719.27;;;6.74;32.72
55687;BME280;41911;52.362;4.978;2023-04-06T01:48:58;101721.23;;;6.76;32.74
55687;BME280;41911;52.362;4.978;2023-04-06T01:49:29;101719.24;;;6.68;32.64
55687;BME280;41911;52.362;4.978;2023-04-06T01:50:00;101721.99;;;6.87;31.42
55687;BME280;41911;52.362;4.978;2023-04-06T01:50:31;101720.36;;;6.52;32.04
55687;BME280;41911;52.362;4.978;2023-04-06T01:51:01;101721.26;;;6.30;32.06
55687;BME280;41911;52.362;4.978;2023-04-06T01:51:32;101720.38;;;6.74;32.44
55687;BME280;41911;52.362;4.978;2023-04-06T01:52:04;101718.77;;;6.75;32.71
55687;BME280;41911;52.362;4.978;2023-04-06T01:52:35;101719.53;;;6.50;31.95
55687;BME280;41911;52.362;4.978;2023-04-06T01:53:06;101721.33;;;6.71;32.25
55687;BME280;41911;52.362;4.978;2023-04-06T01:53:36;101720.93;;;6.90;31.99
55687;BME280;41911;52.362;4.978;2023-04-06T01:54:07;101720.27;;;6.84;32.39
55687;BME280;41911;52.362;4.978;2023-04-06T01:54:38;101717.60;;;6.74;32.23
55687;BME280;41911;52.362;4.978;2023-04-06T01:55:09;101718.28;;;6.71;32.64
55687;BME280;41911;52.362;4.978;2023-04-06T01:55:40;101718.86;;;6.84;32.04
55687;BME280;41911;52.362;4.978;2023-04-06T01:56:11;101717.31;;;6.97;32.12
55687;BME280;41911;52.362;4.978;2023-04-06T01:56:42;101715.66;;;6.98;33.02
55687;BME280;41911;52.362;4.978;2023-04-06T01:57:13;101718.23;;;6.91;32.35
55687;BME280;41911;52.362;4.978;2023-04-06T01:57:44;101715.47;;;6.86;32.39
55687;BME280;41911;52.362;4.978;2023-04-06T01:58:15;101716.79;;;6.59;31.54
55687;BME280;41911;52.362;4.978;2023-04-06T01:58:46;101717.03;;;6.80;32.26
55687;BME280;41911;52.362;4.978;2023-04-06T01:59:17;101716.83;;;6.85;31.62
55687;BME280;41911;52.362;4.978;2023-04-06T01:59:48;101714.66;;;6.73;32.13
55687;BME280;41911;52.362;4.978;2023-04-06T02:00:19;101715.68;;;6.75;32.12
55687;BME280;41911;52.362;4.978;2023-04-06T02:00:50;101715.95;;;6.88;32.09
55687;BME280;41911;52.362;4.978;2023-04-06T02:01:21;101715.22;;;6.45;31.98
55687;BME280;41911;52.362;4.978;2023-04-06T02:02:22;101716.25;;;6.78;31.92
55687;BME280;41911;52.362;4.978;2023-04-06T02:02:53;101714.91;;;6.70;32.42
55687;BME280;41911;52.362;4.978;2023-04-06T02:03:24;101713.29;;;6.77;32.26
55687;BME280;41911;52.362;4.978;2023-04-06T02:03:55;101712.82;;;6.85;32.10
55687;BME280;41911;52.362;4.978;2023-04-06T02:04:26;101711.34;;;6.83;32.10
55687;BME280;41911;52.362;4.978;2023-04-06T02:04:57;101712.52;;;6.91;32.24
55687;BME280;41911;52.362;4.978;2023-04-06T02:05:29;101711.21;;;6.89;31.99
55687;BME280;41911;52.362;4.978;2023-04-06T02:06:01;101710.94;;;6.60;32.15
55687;BME280;41911;52.362;4.978;2023-04-06T02:06:32;101710.33;;;6.84;32.55
55687;BME280;41911;52.362;4.978;2023-04-06T02:07:03;101709.04;;;6.84;32.11
55687;BME280;41911;52.362;4.978;2023-04-06T02:07:34;101707.21;;;6.81;32.48
55687;BME280;41911;52.362;4.978;2023-04-06T02:08:05;101706.27;;;6.81;32.65
55687;BME280;41911;52.362;4.978;2023-04-06T02:08:35;101707.33;;;6.59;32.85
55687;BME280;41911;52.362;4.978;2023-04-06T02:09:07;101706.42;;;6.59;32.73
55687;BME280;41911;52.362;4.978;2023-04-06T02:09:38;101705.06;;;6.91;33.17
55687;BME280;41911;52.362;4.978;2023-04-06T02:10:12;101704.18;;;6.78;32.21
55687;BME280;41911;52.362;4.978;2023-04-06T02:10:43;101699.90;;;6.54;32.26
55687;BME280;41911;52.362;4.978;2023-04-06T02:11:14;101702.02;;;6.98;32.42
55687;BME280;41911;52.362;4.978;2023-04-06T02:11:46;101703.06;;;6.68;32.29
55687;BME280;41911;52.362;4.978;2023-04-06T02:12:17;101702.07;;;6.88;31.84
55687;BME280;41911;52.362;4.978;2023-04-06T02:12:48;101699.07;;;6.69;32.23
55687;BME280;41911;52.362;4.978;2023-04-06T02:13:19;101698.29;;;6.96;32.24
55687;BME280;41911;52.362;4.978;2023-04-06T02:13:50;101697.19;;;6.74;32.59
55687;BME280;41911;52.362;4.978;2023-04-06T02:14:23;101697.75;;;6.79;32.42
55687;BME280;41911;52.362;4.978;2023-04-06T02:14:54;101697.23;;;6.96;32.12
55687;BME280;41911;52.362;4.978;2023-04-06T02:15:25;101697.25;;;6.93;32.12
55687;BME280;41911;52.362;4.978;2023-04-06T02:15:56;101697.58;;;6.89;32.27
55687;BME280;41911;52.362;4.978;2023-04-06T02:16:27;101696.41;;;6.84;31.95
55687;BME280;41911;52.362;4.978;2023-04-06T02:16:58;101696.30;;;6.58;32.24
55687;BME280;41911;52.362;4.978;2023-04-06T02:17:29;101693.31;;;6.93;32.56
55687;BME280;41911;52.362;4.978;2023-04-06T02:18:00;101692.17;;;6.70;32.50
55687;BME280;41911;52.362;4.978;2023-04-06T02:18:31;101690.52;;;7.00;32.37
55687;BME280;41911;52.362;4.978;2023-04-06T02:19:02;101691.87;;;6.97;32.53
55687;BME280;41911;52.362;4.978;2023-04-06T02:19:33;101688.88;;;6.73;32.69
55687;BME280;41911;52.362;4.978;2023-04-06T02:20:06;101690.60;;;7.00;33.06
55687;BME280;41911;52.362;4.978;2023-04-06T02:20:37;101689.53;;;7.05;32.83
55687;BME280;41911;52.362;4.978;2023-04-06T02:21:09;101687.55;;;6.66;32.41
55687;BME280;41911;52.362;4.978;2023-04-06T02:21:39;101689.35;;;6.80;32.96
55687;BME280;41911;52.362;4.978;2023-04-06T02:22:10;101689.31;;;7.01;32.07
55687;BME280;41911;52.362;4.978;2023-04-06T02:22:41;101687.84;;;6.75;32.47
55687;BME280;41911;52.362;4.978;2023-04-06T02:23:12;101687.33;;;6.43;32.61
55687;BME280;41911;52.362;4.978;2023-04-06T02:23:43;101686.72;;;6.82;32.57
55687;BME280;41911;52.362;4.978;2023-04-06T02:24:14;101686.72;;;6.79;32.46
55687;BME280;41911;52.362;4.978;2023-04-06T02:24:45;101688.42;;;7.04;32.08
55687;BME280;41911;52.362;4.978;2023-04-06T02:25:16;101685.82;;;6.70;32.43
55687;BME280;41911;52.362;4.978;2023-04-06T02:25:47;101685.79;;;6.97;32.54
55687;BME280;41911;52.362;4.978;2023-04-06T02:26:18;101684.92;;;6.79;32.42
55687;BME280;41911;52.362;4.978;2023-04-06T02:26:49;101684.08;;;6.71;32.41
55687;BME280;41911;52.362;4.978;2023-04-06T02:27:20;101681.23;;;6.88;32.99
55687;BME280;41911;52.362;4.978;2023-04-06T02:27:51;101684.26;;;6.95;32.31
55687;BME280;41911;52.362;4.978;2023-04-06T02:28:22;101684.68;;;6.64;31.77
55687;BME280;41911;52.362;4.978;2023-04-06T02:28:53;101682.45;;;6.75;31.99
55687;BME280;41911;52.362;4.978;2023-04-06T02:29:24;101683.24;;;7.05;32.11
55687;BME280;41911;52.362;4.978;2023-04-06T02:29:55;101683.06;;;6.69;32.40
55687;BME280;41911;52.362;4.978;2023-04-06T02:30:26;101682.31;;;6.79;32.60
55687;BME280;41911;52.362;4.978;2023-04-06T02:30:57;101682.85;;;7.09;31.87
55687;BME280;41911;52.362;4.978;2023-04-06T02:31:28;101683.47;;;7.06;32.54
55687;BME280;41911;52.362;4.978;2023-04-06T02:31:59;101681.11;;;6.80;32.66
55687;BME280;41911;52.362;4.978;2023-04-06T02:32:30;101680.58;;;6.94;32.01
55687;BME280;41911;52.362;4.978;2023-04-06T02:33:01;101680.03;;;7.03;32.28
55687;BME280;41911;52.362;4.978;2023-04-06T02:33:32;101678.52;;;6.96;32.87
55687;BME280;41911;52.362;4.978;2023-04-06T02:34:03;101677.61;;;6.56;32.54
55687;BME280;41911;52.362;4.978;2023-04-06T02:34:34;101676.91;;;6.53;32.34
55687;BME280;41911;52.362;4.978;2023-04-06T02:35:05;101677.79;;;6.88;32.39
55687;BME280;41911;52.362;4.978;2023-04-06T02:35:36;101677.23;;;6.62;32.67
55687;BME280;41911;52.362;4.978;2023-04-06T02:36:07;101676.93;;;6.93;32.29
55687;BME280;41911;52.362;4.978;2023-04-06T02:36:39;101676.99;;;6.82;31.84
55687;BME280;41911;52.362;4.978;2023-04-06T02:37:10;101675.91;;;6.84;32.06
55687;BME280;41911;52.362;4.978;2023-04-06T02:37:41;101676.05;;;6.72;32.06
55687;BME280;41911;52.362;4.978;2023-04-06T02:38:12;101675.60;;;6.76;32.47
55687;BME280;41911;52.362;4.978;2023-04-06T02:38:44;101675.44;;;6.75;32.98
55687;BME280;41911;52.362;4.978;2023-04-06T02:39:15;101673.55;;;6.57;32.72
55687;BME280;41911;52.362;4.978;2023-04-06T02:39:46;101674.58;;;6.56;32.16
55687;BME280;41911;52.362;4.978;2023-04-06T02:40:17;101673.46;;;6.57;32.62
55687;BME280;41911;52.362;4.978;2023-04-06T02:40:48;101674.23;;;6.66;32.86
55687;BME280;41911;52.362;4.978;2023-04-06T02:41:19;101672.23;;;6.66;32.90
55687;BME280;41911;52.362;4.978;2023-04-06T02:41:50;101673.15;;;6.72;32.09
55687;BME280;41911;52.362;4.978;2023-04-06T02:42:21;101672.22;;;6.71;32.53
55687;BME280;41911;52.362;4.978;2023-04-06T02:42:52;101672.43;;;6.84;32.44
55687;BME280;41911;52.362;4.978;2023-04-06T02:43:22;101671.08;;;6.76;32.33
55687;BME280;41911;52.362;4.978;2023-04-06T02:43:53;101671.01;;;6.74;32.14
55687;BME280;41911;52.362;4.978;2023-04-06T02:44:24;101668.98;;;6.66;32.20
55687;BME280;41911;52.362;4.978;2023-04-06T02:44:55;101670.48;;;6.71;32.40
55687;BME280;41911;52.362;4.978;2023-04-06T02:45:26;101672.48;;;6.84;32.08